createdAt,value
2019-03-17T00:01:57.661Z,11.07
2019-03-17T00:04:31.799Z,12.03
2019-03-17T00:06:58.368Z,10.90
2019-03-17T00:09:27.737Z,14.83
2019-03-17T00:11:57.106Z,14.37
2019-03-17T00:14:26.450Z,14.50
2019-03-17T00:16:55.772Z,13.40
2019-03-17T00:19:27.530Z,12.10
2019-03-17T00:21:56.222Z,11.40
2019-03-17T00:24:25.596Z,10.70
2019-03-17T00:26:55.011Z,12.90
2019-03-17T00:29:24.349Z,13.47
2019-03-17T00:31:53.687Z,13.53
2019-03-17T00:34:23.089Z,11.93
2019-03-17T00:36:52.558Z,11.93
2019-03-17T00:39:21.921Z,11.17
2019-03-17T00:41:51.293Z,11.50
2019-03-17T00:44:20.626Z,11.93
2019-03-17T00:46:49.979Z,10.40
2019-03-17T00:49:19.323Z,11.50
2019-03-17T00:51:48.667Z,10.80
2019-03-17T00:54:18.024Z,10.47
2019-03-17T00:56:47.370Z,9.70
2019-03-17T00:59:16.692Z,9.20
2019-03-17T01:01:46.453Z,9.57
2019-03-17T01:04:15.790Z,8.90
2019-03-17T01:06:45.165Z,9.40
2019-03-17T01:09:14.534Z,10.33
2019-03-17T01:11:44.226Z,11.30
2019-03-17T01:14:13.610Z,11.03
2019-03-17T01:16:43.004Z,11.57
2019-03-17T01:19:12.361Z,10.97
2019-03-17T01:21:41.690Z,9.70
2019-03-17T01:24:11.034Z,9.03
2019-03-17T01:26:40.377Z,8.63
2019-03-17T01:29:09.759Z,8.40
2019-03-17T01:31:39.135Z,8.50
2019-03-17T01:34:08.472Z,7.00
2019-03-17T01:36:37.954Z,7.33
2019-03-17T01:39:07.988Z,7.03
2019-03-17T01:41:37.374Z,7.47
2019-03-17T01:44:06.808Z,7.63
2019-03-17T01:46:36.143Z,8.13
2019-03-17T01:49:05.547Z,7.50
2019-03-17T01:51:34.879Z,7.20
2019-03-17T01:54:04.222Z,7.67
2019-03-17T01:56:33.567Z,7.57
2019-03-17T01:59:02.886Z,7.27
2019-03-17T02:01:32.222Z,7.27
2019-03-17T02:04:01.567Z,7.67
2019-03-17T02:06:30.939Z,7.40
2019-03-17T02:09:00.320Z,7.13
2019-03-17T02:11:29.653Z,7.50
2019-03-17T02:13:59.018Z,7.67
2019-03-17T02:16:28.356Z,7.67
2019-03-17T02:18:57.702Z,7.60
2019-03-17T02:21:27.058Z,7.90
2019-03-17T02:23:56.415Z,8.03
2019-03-17T02:26:25.774Z,7.47
2019-03-17T02:28:55.558Z,7.27
2019-03-17T02:31:24.921Z,7.97
2019-03-17T02:33:54.306Z,7.87
2019-03-17T02:36:23.687Z,8.03
2019-03-17T02:38:53.086Z,7.47
2019-03-17T02:41:22.408Z,7.27
2019-03-17T02:43:51.784Z,7.37
2019-03-17T02:46:21.124Z,6.57
2019-03-17T02:48:50.521Z,7.40
2019-03-17T02:51:19.865Z,7.47
2019-03-17T02:53:49.223Z,6.73
2019-03-17T02:56:20.012Z,6.57
2019-03-17T02:58:49.424Z,7.43
2019-03-17T03:01:18.786Z,7.27
2019-03-17T03:03:48.215Z,7.77
2019-03-17T03:06:17.681Z,7.07
2019-03-17T03:08:47.049Z,6.63
2019-03-17T03:11:16.527Z,7.50
2019-03-17T03:13:45.881Z,6.33
2019-03-17T03:16:15.224Z,6.50
2019-03-17T03:18:44.588Z,5.80
2019-03-17T03:21:13.956Z,5.77
2019-03-17T03:23:43.293Z,5.90
2019-03-17T03:26:12.689Z,5.33
2019-03-17T03:28:42.054Z,5.70
2019-03-17T03:31:11.458Z,6.10
2019-03-17T03:33:40.784Z,5.87
2019-03-17T03:36:12.030Z,6.33
2019-03-17T03:38:41.499Z,6.23
2019-03-17T03:41:10.843Z,6.63
2019-03-17T03:43:40.238Z,6.13
2019-03-17T03:46:09.575Z,5.70
2019-03-17T03:48:38.919Z,6.20
2019-03-17T03:51:08.314Z,5.33
2019-03-17T03:53:37.672Z,6.03
2019-03-17T03:56:07.032Z,5.67
2019-03-17T03:58:36.370Z,6.23
2019-03-17T04:01:05.728Z,6.27
2019-03-17T04:03:35.070Z,6.73
2019-03-17T04:06:04.450Z,6.97
2019-03-17T04:08:33.810Z,6.47
2019-03-17T04:11:03.152Z,6.47
2019-03-17T04:13:32.626Z,7.43
2019-03-17T04:16:02.040Z,7.93
2019-03-17T04:18:31.400Z,7.13
2019-03-17T04:21:00.763Z,8.80
2019-03-17T04:23:30.098Z,8.23
2019-03-17T04:25:59.441Z,8.97
2019-03-17T04:28:28.839Z,8.30
2019-03-17T04:30:58.195Z,12.77
2019-03-17T04:33:27.542Z,13.10
2019-03-17T04:35:56.868Z,14.10
2019-03-17T04:38:26.257Z,12.33
2019-03-17T04:40:55.641Z,10.20
2019-03-17T04:43:25.036Z,8.67
2019-03-17T04:45:54.414Z,8.53
2019-03-17T04:48:23.782Z,11.13
2019-03-17T04:50:53.133Z,12.10
2019-03-17T04:53:22.534Z,10.80
2019-03-17T04:55:51.909Z,10.40
2019-03-17T04:58:21.652Z,15.77
2019-03-17T05:00:51.029Z,14.00
2019-03-17T05:03:20.359Z,12.00
2019-03-17T05:05:49.701Z,11.27
2019-03-17T05:08:19.071Z,11.60
2019-03-17T05:10:48.436Z,10.23
2019-03-17T05:13:17.812Z,10.57
2019-03-17T05:15:47.144Z,13.87
2019-03-17T05:18:16.515Z,11.50
2019-03-17T05:20:45.854Z,10.97
2019-03-17T05:23:15.227Z,10.83
2019-03-17T05:25:44.600Z,9.33
2019-03-17T05:28:14.139Z,9.97
2019-03-17T05:30:43.495Z,9.63
2019-03-17T05:33:12.831Z,10.23
2019-03-17T05:35:42.190Z,8.83
2019-03-17T05:38:11.569Z,9.77
2019-03-17T05:40:40.963Z,10.00
2019-03-17T05:43:10.417Z,10.57
2019-03-17T05:45:39.763Z,9.93
2019-03-17T05:48:09.173Z,9.10
2019-03-17T05:50:38.523Z,10.17
2019-03-17T05:53:08.011Z,9.63
2019-03-17T05:55:37.405Z,9.97
2019-03-17T05:58:06.824Z,10.27
2019-03-17T06:00:36.240Z,10.47
2019-03-17T06:03:05.635Z,10.10
2019-03-17T06:05:34.966Z,9.97
2019-03-17T06:08:04.364Z,11.50
2019-03-17T06:10:33.737Z,16.53
2019-03-17T06:13:03.190Z,14.93
2019-03-17T06:15:32.598Z,13.03
2019-03-17T06:18:01.953Z,11.50
2019-03-17T06:20:31.402Z,14.70
2019-03-17T06:23:00.854Z,13.03
2019-03-17T06:25:30.296Z,13.33
2019-03-17T06:27:59.847Z,11.53
2019-03-17T06:30:29.233Z,12.03
2019-03-17T06:32:58.676Z,11.73
2019-03-17T06:35:28.044Z,12.27
2019-03-17T06:37:57.887Z,12.07
2019-03-17T06:40:27.527Z,12.17
2019-03-17T06:42:56.915Z,12.23
2019-03-17T06:45:26.450Z,13.50
2019-03-17T06:47:55.852Z,14.43
2019-03-17T06:50:25.246Z,13.73
2019-03-17T06:52:54.605Z,19.83
2019-03-17T06:55:24.151Z,12.83
2019-03-17T06:57:53.567Z,12.10
2019-03-17T07:00:23.035Z,11.83
2019-03-17T07:02:52.606Z,11.00
2019-03-17T07:05:22.164Z,11.43
2019-03-17T07:07:51.992Z,13.03
2019-03-17T07:10:21.346Z,9.83
2019-03-17T07:12:50.899Z,10.10
2019-03-17T07:15:20.256Z,9.80
2019-03-17T07:17:49.645Z,9.85
2019-03-17T07:20:19.106Z,8.97
2019-03-17T07:22:48.493Z,9.28
2019-03-17T07:25:17.935Z,9.18
2019-03-17T07:27:47.303Z,8.08
2019-03-17T07:30:17.501Z,7.65
2019-03-17T07:32:46.936Z,9.33
2019-03-17T07:35:16.377Z,8.85
2019-03-17T07:37:56.328Z,8.20
2019-03-17T07:40:16.871Z,8.43
2019-03-17T07:42:46.258Z,8.40
2019-03-17T07:45:15.646Z,8.73
2019-03-17T07:47:45.047Z,7.70
2019-03-17T07:50:14.463Z,8.85
2019-03-17T07:52:43.889Z,8.70
2019-03-17T07:55:13.324Z,9.50
2019-03-17T07:57:43.182Z,10.32
2019-03-17T08:00:13.682Z,8.60
2019-03-17T08:02:43.727Z,8.80
2019-03-17T08:05:13.142Z,8.93
2019-03-17T08:07:43.086Z,8.60
2019-03-17T08:10:12.785Z,9.03
2019-03-17T08:12:42.136Z,9.63
2019-03-17T08:15:11.959Z,9.73
2019-03-17T08:17:41.392Z,9.30
2019-03-17T08:20:10.920Z,8.23
2019-03-17T08:22:41.207Z,8.20
2019-03-17T08:25:10.949Z,8.35
2019-03-17T08:27:40.667Z,8.15
2019-03-17T08:30:10.755Z,8.40
2019-03-17T08:32:41.410Z,8.35
2019-03-17T08:35:11.585Z,8.48
2019-03-17T08:37:41.189Z,8.80
2019-03-17T08:40:12.021Z,9.35
2019-03-17T08:42:42.352Z,8.23
2019-03-17T08:45:12.728Z,8.23
2019-03-17T08:47:42.157Z,8.33
2019-03-17T08:50:11.779Z,8.70
2019-03-17T08:52:41.167Z,9.25
2019-03-17T08:55:10.703Z,7.87
2019-03-17T08:57:40.068Z,7.62
2019-03-17T09:00:11.828Z,8.25
2019-03-17T09:02:41.242Z,7.62
2019-03-17T09:05:10.666Z,8.15
2019-03-17T09:07:40.096Z,7.20
2019-03-17T09:10:10.640Z,9.00
2019-03-17T09:12:40.444Z,8.53
2019-03-17T09:15:10.636Z,8.08
2019-03-17T09:17:40.071Z,8.53
2019-03-17T09:20:09.997Z,6.87
2019-03-17T09:22:41.295Z,6.40
2019-03-17T09:25:13.463Z,5.95
2019-03-17T09:27:43.255Z,7.28
2019-03-17T09:30:13.490Z,6.92
2019-03-17T09:32:42.897Z,5.97
2019-03-17T09:35:12.470Z,5.20
2019-03-17T09:37:43.156Z,5.50
2019-03-17T09:40:12.817Z,6.45
2019-03-17T09:42:42.541Z,4.95
2019-03-17T09:45:13.883Z,4.78
2019-03-17T09:47:43.346Z,4.85
2019-03-17T09:50:13.719Z,4.97
2019-03-17T09:52:44.092Z,4.90
2019-03-17T09:55:14.720Z,5.05
2019-03-17T09:57:45.761Z,5.40
2019-03-17T10:00:15.781Z,5.15
2019-03-17T10:02:47.470Z,4.80
2019-03-17T10:05:17.430Z,4.03
2019-03-17T10:07:47.002Z,4.70
2019-03-17T10:10:17.036Z,3.98
2019-03-17T10:12:47.993Z,3.40
2019-03-17T10:15:17.396Z,3.80
2019-03-17T10:17:46.916Z,3.50
2019-03-17T10:20:17.353Z,3.52
2019-03-17T10:22:46.736Z,3.92
2019-03-17T10:25:16.072Z,4.85
2019-03-17T10:27:46.995Z,4.33
2019-03-17T10:30:17.645Z,3.80
2019-03-17T10:32:56.786Z,3.30
2019-03-17T10:35:26.265Z,3.45
2019-03-17T10:38:08.494Z,3.65
2019-03-17T10:40:38.335Z,3.87
2019-03-17T10:43:07.971Z,3.87
2019-03-17T10:45:39.004Z,3.75
2019-03-17T10:48:12.311Z,3.85
2019-03-17T10:50:49.405Z,4.30
2019-03-17T10:53:19.106Z,3.17
2019-03-17T10:55:53.503Z,3.05
2019-03-17T10:58:23.746Z,3.90
2019-03-17T11:00:54.081Z,3.65
2019-03-17T11:03:23.636Z,3.47
2019-03-17T11:05:54.537Z,3.83
2019-03-17T11:08:25.376Z,3.45
2019-03-17T11:10:54.877Z,4.45
2019-03-17T11:13:24.383Z,3.33
2019-03-17T11:15:54.867Z,3.40
2019-03-17T11:18:25.239Z,3.00
2019-03-17T11:20:55.542Z,3.60
2019-03-17T11:23:25.041Z,2.72
2019-03-17T11:25:55.458Z,3.40
2019-03-17T11:28:26.159Z,3.22
2019-03-17T11:30:59.977Z,3.08
2019-03-17T11:33:30.101Z,2.87
2019-03-17T11:35:59.983Z,3.05
2019-03-17T11:38:30.693Z,2.92
2019-03-17T11:41:00.295Z,2.77
2019-03-17T11:43:29.885Z,3.12
2019-03-17T11:46:00.323Z,5.60
2019-03-17T11:48:31.616Z,3.20
2019-03-17T11:51:01.190Z,3.08
2019-03-17T11:53:30.676Z,3.00
2019-03-17T11:56:00.529Z,2.80
2019-03-17T11:58:31.751Z,3.15
2019-03-17T12:01:02.118Z,3.77
2019-03-17T12:03:31.671Z,3.42
2019-03-17T12:06:01.110Z,3.77
2019-03-17T12:08:31.522Z,3.80
2019-03-17T12:11:01.006Z,3.98
2019-03-17T12:13:31.331Z,4.10
2019-03-17T12:16:00.871Z,3.55
2019-03-17T12:18:30.371Z,3.75
2019-03-17T12:21:00.442Z,3.17
2019-03-17T12:23:31.782Z,4.17
2019-03-17T12:26:02.063Z,3.95
2019-03-17T12:28:32.472Z,5.03
2019-03-17T12:31:02.846Z,10.43
2019-03-17T12:33:33.365Z,4.15
2019-03-17T12:36:04.300Z,3.25
2019-03-17T12:38:34.151Z,3.98
2019-03-17T12:41:03.690Z,3.70
2019-03-17T12:43:33.211Z,4.70
2019-03-17T12:46:03.901Z,3.30
2019-03-17T12:48:34.230Z,3.20
2019-03-17T12:51:05.130Z,3.12
2019-03-17T12:53:35.806Z,3.22
2019-03-17T12:56:06.116Z,3.00
2019-03-17T12:58:35.848Z,3.50
2019-03-17T13:01:05.331Z,2.92
2019-03-17T13:03:34.719Z,3.55
2019-03-17T13:06:05.210Z,3.02
2019-03-17T13:08:34.627Z,3.50
2019-03-17T13:11:04.092Z,3.58
2019-03-17T13:13:34.739Z,8.28
2019-03-17T13:16:04.215Z,4.85
2019-03-17T13:18:33.610Z,3.02
2019-03-17T13:21:02.933Z,3.02
2019-03-17T13:23:33.870Z,3.17
2019-03-17T13:26:03.462Z,2.80
2019-03-17T13:28:32.842Z,3.20
2019-03-17T13:31:02.619Z,2.60
2019-03-17T13:33:31.964Z,2.70
2019-03-17T13:36:01.290Z,2.85
2019-03-17T13:38:30.677Z,3.60
2019-03-17T13:41:00.029Z,3.02
2019-03-17T13:43:29.423Z,3.60
2019-03-17T13:45:58.781Z,3.20
2019-03-17T13:48:28.145Z,3.40
2019-03-17T13:50:57.581Z,2.70
2019-03-17T13:53:26.948Z,2.77
2019-03-17T13:55:56.328Z,2.70
2019-03-17T13:58:25.703Z,2.40
2019-03-17T14:00:55.296Z,2.27
2019-03-17T14:03:24.680Z,2.60
2019-03-17T14:05:54.097Z,2.60
2019-03-17T14:08:23.448Z,2.30
2019-03-17T14:10:52.817Z,2.77
2019-03-17T14:13:22.201Z,2.60
2019-03-17T14:15:51.565Z,2.30
2019-03-17T14:18:20.949Z,2.43
2019-03-17T14:20:50.349Z,2.50
2019-03-17T14:23:19.776Z,2.40
2019-03-17T14:25:49.447Z,2.70
2019-03-17T14:28:18.847Z,2.73
2019-03-17T14:30:48.428Z,2.50
2019-03-17T14:33:18.214Z,2.50
2019-03-17T14:35:47.681Z,2.97
2019-03-17T14:38:17.033Z,2.80
2019-03-17T14:40:53.417Z,2.70
2019-03-17T14:43:17.935Z,5.63
2019-03-17T14:45:47.323Z,3.00
2019-03-17T14:48:16.744Z,2.30
2019-03-17T14:50:46.102Z,2.70
2019-03-17T14:53:15.482Z,2.40
2019-03-17T14:55:44.932Z,3.10
2019-03-17T14:58:14.332Z,2.90
2019-03-17T15:00:43.687Z,2.80
2019-03-17T15:03:13.130Z,2.87
2019-03-17T15:05:42.560Z,2.50
2019-03-17T15:08:12.189Z,3.20
2019-03-17T15:10:41.544Z,2.90
2019-03-17T15:13:10.982Z,2.83
2019-03-17T15:15:40.440Z,7.73
2019-03-17T15:18:09.925Z,4.53
2019-03-17T15:20:39.807Z,4.37
2019-03-17T15:23:09.237Z,3.80
2019-03-17T15:25:39.811Z,3.73
2019-03-17T15:28:09.238Z,4.47
2019-03-17T15:30:38.635Z,3.83
2019-03-17T15:33:08.124Z,4.13
2019-03-17T15:35:37.479Z,3.43
2019-03-17T15:38:06.867Z,3.30
2019-03-17T15:40:36.276Z,5.73
2019-03-17T15:43:05.661Z,4.63
2019-03-17T15:45:35.123Z,5.17
2019-03-17T15:48:04.556Z,4.63
2019-03-17T15:50:34.174Z,9.50
2019-03-17T15:53:03.599Z,5.57
2019-03-17T15:55:33.185Z,3.90
2019-03-17T15:58:02.559Z,3.50
2019-03-17T16:00:31.940Z,3.80
2019-03-17T16:03:01.310Z,5.13
2019-03-17T16:05:31.161Z,5.33
2019-03-17T16:08:00.598Z,4.10
2019-03-17T16:10:30.107Z,6.67
2019-03-17T16:12:59.466Z,6.53
2019-03-17T16:15:28.920Z,5.03
2019-03-17T16:17:58.332Z,5.80
2019-03-17T16:20:27.867Z,5.53
2019-03-17T16:22:57.443Z,6.00
2019-03-17T16:25:26.854Z,6.03
2019-03-17T16:27:56.376Z,6.40
2019-03-17T16:30:25.778Z,7.47
2019-03-17T16:32:55.167Z,8.20
2019-03-17T16:35:24.585Z,6.50
2019-03-17T16:37:53.952Z,7.00
2019-03-17T16:40:23.546Z,7.17
2019-03-17T16:42:54.041Z,7.60
2019-03-17T16:45:23.782Z,7.60
2019-03-17T16:47:53.163Z,7.30
2019-03-17T16:50:23.024Z,9.20
2019-03-17T16:52:52.410Z,9.00
2019-03-17T16:55:21.906Z,8.87
2019-03-17T16:57:51.405Z,9.67
2019-03-17T17:00:21.031Z,11.83
2019-03-17T17:02:50.427Z,13.60
2019-03-17T17:05:19.956Z,8.33
2019-03-17T17:07:49.353Z,10.90
2019-03-17T17:10:19.154Z,16.80
2019-03-17T17:12:48.538Z,13.70
2019-03-17T17:15:23.643Z,11.47
2019-03-17T17:17:53.048Z,24.67
2019-03-17T17:20:24.223Z,15.80
2019-03-17T17:22:53.631Z,20.00
2019-03-17T17:25:23.032Z,82.70
2019-03-17T17:27:55.642Z,47.87
2019-03-17T17:30:25.040Z,175.70
2019-03-17T17:32:54.457Z,85.47
2019-03-17T17:35:23.939Z,256.63
2019-03-17T17:37:53.739Z,31.90
2019-03-17T17:40:23.202Z,14.03
2019-03-17T17:42:53.561Z,9.73
2019-03-17T17:45:23.005Z,10.10
2019-03-17T17:47:52.431Z,8.80
2019-03-17T17:50:21.885Z,10.03
2019-03-17T17:52:51.279Z,10.53
2019-03-17T17:55:20.721Z,9.23
2019-03-17T17:57:53.016Z,10.30
2019-03-17T18:00:23.239Z,10.00
2019-03-17T18:02:52.817Z,10.27
2019-03-17T18:05:22.353Z,9.40
2019-03-17T18:07:51.739Z,10.47
2019-03-17T18:10:21.234Z,10.83
2019-03-17T18:12:50.758Z,10.70
2019-03-17T18:15:21.564Z,12.20
2019-03-17T18:17:50.973Z,15.50
2019-03-17T18:20:20.468Z,12.63
2019-03-17T18:22:49.924Z,14.33
2019-03-17T18:25:19.482Z,11.47
2019-03-17T18:27:49.270Z,11.93
2019-03-17T18:30:18.725Z,11.80
2019-03-17T18:32:48.121Z,13.73
2019-03-17T18:35:20.143Z,11.93
2019-03-17T18:37:51.272Z,11.83
2019-03-17T18:40:21.011Z,11.40
2019-03-17T18:42:50.543Z,10.93
2019-03-17T18:45:20.311Z,12.73
2019-03-17T18:47:50.627Z,13.07
2019-03-17T18:50:21.135Z,13.43
2019-03-17T18:52:50.788Z,11.63
2019-03-17T18:55:21.356Z,12.07
2019-03-17T18:57:50.686Z,12.30
2019-03-17T19:00:20.094Z,12.63
2019-03-17T19:02:50.057Z,12.43
2019-03-17T19:05:20.419Z,12.37
2019-03-17T19:07:50.032Z,11.53
2019-03-17T19:10:22.055Z,14.30
2019-03-17T19:12:51.611Z,13.43
2019-03-17T19:15:21.067Z,13.17
2019-03-17T19:17:50.657Z,13.40
2019-03-17T19:20:20.074Z,15.73
2019-03-17T19:22:49.664Z,17.50
2019-03-17T19:25:19.101Z,18.50
2019-03-17T19:27:48.502Z,17.40
2019-03-17T19:30:18.211Z,17.93
2019-03-17T19:32:47.788Z,19.90
2019-03-17T19:35:17.317Z,18.10
2019-03-17T19:37:49.033Z,17.83
2019-03-17T19:40:18.580Z,16.67
2019-03-17T19:42:58.190Z,21.07
2019-03-17T19:45:19.093Z,20.40
2019-03-17T19:47:48.696Z,23.03
2019-03-17T19:50:18.211Z,23.07
2019-03-17T19:52:47.980Z,23.10
2019-03-17T19:55:17.552Z,21.37
2019-03-17T19:57:47.784Z,18.10
2019-03-17T20:00:17.845Z,18.20
2019-03-17T20:02:48.004Z,15.57
2019-03-17T20:05:17.771Z,22.80
2019-03-17T20:07:47.197Z,34.40
2019-03-17T20:10:19.148Z,32.23
2019-03-17T20:12:48.867Z,33.03
2019-03-17T20:15:18.351Z,32.80
2019-03-17T20:17:48.163Z,28.40
2019-03-17T20:20:17.536Z,36.60
2019-03-17T20:22:47.000Z,40.27
2019-03-17T20:25:16.363Z,40.60
2019-03-17T20:27:45.709Z,47.00
2019-03-17T20:30:15.181Z,50.23
2019-03-17T20:32:44.649Z,53.03
2019-03-17T20:35:14.332Z,47.80
2019-03-17T20:37:43.706Z,46.73
2019-03-17T20:40:13.143Z,42.90
2019-03-17T20:42:43.152Z,34.83
2019-03-17T20:45:12.752Z,31.90
2019-03-17T20:47:42.143Z,37.13
2019-03-17T20:50:12.023Z,31.53
2019-03-17T20:52:41.478Z,41.30
2019-03-17T20:55:10.917Z,30.43
2019-03-17T20:57:40.857Z,35.37
2019-03-17T21:00:12.452Z,39.17
2019-03-17T21:02:41.905Z,43.73
2019-03-17T21:05:11.657Z,43.93
2019-03-17T21:07:41.100Z,36.83
2019-03-17T21:10:11.790Z,43.90
2019-03-17T21:12:41.508Z,40.33
2019-03-17T21:15:12.158Z,39.50
2019-03-17T21:17:41.801Z,39.17
2019-03-17T21:20:13.194Z,38.07
2019-03-17T21:22:42.753Z,39.37
2019-03-17T21:25:12.464Z,41.03
2019-03-17T21:27:42.145Z,43.27
2019-03-17T21:30:14.621Z,43.73
2019-03-17T21:32:44.277Z,44.00
2019-03-17T21:35:14.121Z,59.17
2019-03-17T21:37:43.779Z,39.77
2019-03-17T21:40:13.531Z,45.10
2019-03-17T21:42:44.852Z,45.33
2019-03-17T21:45:14.602Z,50.60
2019-03-17T21:47:44.149Z,43.43
2019-03-17T21:50:15.308Z,52.53
2019-03-17T21:52:44.873Z,49.70
2019-03-17T21:55:14.416Z,51.13
2019-03-17T21:57:43.856Z,47.53
2019-03-17T22:00:14.924Z,49.27
2019-03-17T22:02:44.391Z,39.33
2019-03-17T22:05:14.079Z,45.30
2019-03-17T22:07:49.342Z,44.53
2019-03-17T22:10:15.808Z,51.00
2019-03-17T22:12:47.233Z,54.00
2019-03-17T22:15:17.056Z,47.73
2019-03-17T22:17:47.360Z,49.60
2019-03-17T22:20:17.080Z,50.30
2019-03-17T22:22:46.615Z,47.27
2019-03-17T22:25:16.283Z,53.37
2019-03-17T22:27:46.663Z,53.10
2019-03-17T22:30:17.228Z,48.23
2019-03-17T22:32:46.674Z,45.80
2019-03-17T22:35:16.109Z,44.67
2019-03-17T22:37:45.590Z,49.83
2019-03-17T22:40:15.232Z,47.33
2019-03-17T22:42:44.627Z,47.80
2019-03-17T22:45:14.313Z,45.30
2019-03-17T22:47:44.568Z,42.87
2019-03-17T22:50:14.097Z,42.67
2019-03-17T22:52:44.421Z,42.00
2019-03-17T22:55:14.046Z,41.23
2019-03-17T22:57:44.458Z,38.87
2019-03-17T23:00:19.363Z,39.70
2019-03-17T23:02:49.323Z,40.67
2019-03-17T23:05:18.873Z,40.27
2019-03-17T23:07:48.233Z,38.80
2019-03-17T23:10:19.829Z,39.20
2019-03-17T23:12:50.517Z,38.20
2019-03-17T23:15:23.435Z,36.43
2019-03-17T23:17:52.762Z,37.20
2019-03-17T23:20:22.376Z,34.63
2019-03-17T23:22:51.995Z,31.80
2019-03-17T23:25:21.431Z,31.07
2019-03-17T23:27:50.965Z,29.77
2019-03-17T23:30:20.472Z,30.13
2019-03-17T23:32:50.001Z,29.40
2019-03-17T23:35:19.495Z,32.60
2019-03-17T23:37:48.902Z,32.90
2019-03-17T23:40:18.411Z,33.30
2019-03-17T23:42:47.936Z,32.50
2019-03-17T23:45:17.355Z,31.87
2019-03-17T23:47:46.780Z,30.70
2019-03-17T23:50:16.158Z,29.97
2019-03-17T23:52:45.555Z,29.27
2019-03-17T23:55:14.962Z,26.73
2019-03-17T23:57:44.388Z,28.90
